sensor_id;sensor_type;location;lat;lon;timestamp;P1;durP1;ratioP1;P2;durP2;ratioP2
21038;SDS011;10678;51.002;4.786;2023-08-08T00:01:03;7.45;;;1.88;;
21038;SDS011;10678;51.002;4.786;2023-08-08T00:03:29;5.88;;;1.58;;
21038;SDS011;10678;51.002;4.786;2023-08-08T00:05:56;4.22;;;1.40;;
21038;SDS011;10678;51.002;4.786;2023-08-08T00:08:21;6.65;;;2.13;;
21038;SDS011;10678;51.002;4.786;2023-08-08T00:10:47;7.05;;;1.50;;
21038;SDS011;10678;51.002;4.786;2023-08-08T00:13:12;5.40;;;1.30;;
21038;SDS011;10678;51.002;4.786;2023-08-08T00:15:38;4.95;;;1.48;;
21038;SDS011;10678;51.002;4.786;2023-08-08T00:18:04;7.18;;;1.55;;
21038;SDS011;10678;51.002;4.786;2023-08-08T00:20:30;5.63;;;1.70;;
21038;SDS011;10678;51.002;4.786;2023-08-08T00:22:55;4.63;;;1.70;;
21038;SDS011;10678;51.002;4.786;2023-08-08T00:25:21;6.47;;;1.80;;
21038;SDS011;10678;51.002;4.786;2023-08-08T00:27:47;9.23;;;1.55;;
21038;SDS011;10678;51.002;4.786;2023-08-08T00:30:12;7.05;;;1.70;;
21038;SDS011;10678;51.002;4.786;2023-08-08T00:32:38;6.55;;;2.28;;
21038;SDS011;10678;51.002;4.786;2023-08-08T00:35:04;8.43;;;1.48;;
21038;SDS011;10678;51.002;4.786;2023-08-08T00:37:30;6.63;;;1.55;;
21038;SDS011;10678;51.002;4.786;2023-08-08T00:39:56;7.22;;;1.65;;
21038;SDS011;10678;51.002;4.786;2023-08-08T00:42:21;9.00;;;1.98;;
21038;SDS011;10678;51.002;4.786;2023-08-08T00:44:47;6.00;;;1.80;;
21038;SDS011;10678;51.002;4.786;2023-08-08T00:47:13;12.50;;;1.80;;
21038;SDS011;10678;51.002;4.786;2023-08-08T00:49:38;8.73;;;2.00;;
21038;SDS011;10678;51.002;4.786;2023-08-08T00:52:05;10.65;;;2.08;;
21038;SDS011;10678;51.002;4.786;2023-08-08T00:54:32;9.00;;;1.95;;
21038;SDS011;10678;51.002;4.786;2023-08-08T00:56:58;8.10;;;1.70;;
21038;SDS011;10678;51.002;4.786;2023-08-08T00:59:23;6.55;;;2.25;;
21038;SDS011;10678;51.002;4.786;2023-08-08T01:01:49;7.72;;;2.00;;
21038;SDS011;10678;51.002;4.786;2023-08-08T01:04:15;8.65;;;1.90;;
21038;SDS011;10678;51.002;4.786;2023-08-08T01:09:53;9.57;;;1.50;;
21038;SDS011;10678;51.002;4.786;2023-08-08T01:12:22;6.43;;;1.70;;
21038;SDS011;10678;51.002;4.786;2023-08-08T01:14:50;7.07;;;1.80;;
21038;SDS011;10678;51.002;4.786;2023-08-08T01:17:16;7.63;;;1.60;;
21038;SDS011;10678;51.002;4.786;2023-08-08T01:19:42;4.38;;;1.35;;
21038;SDS011;10678;51.002;4.786;2023-08-08T01:22:14;8.98;;;1.45;;
21038;SDS011;10678;51.002;4.786;2023-08-08T01:24:50;8.60;;;1.70;;
21038;SDS011;10678;51.002;4.786;2023-08-08T01:27:18;9.02;;;1.75;;
21038;SDS011;10678;51.002;4.786;2023-08-08T01:29:44;6.80;;;1.55;;
21038;SDS011;10678;51.002;4.786;2023-08-08T01:32:09;6.80;;;1.90;;
21038;SDS011;10678;51.002;4.786;2023-08-08T01:34:35;11.23;;;1.90;;
21038;SDS011;10678;51.002;4.786;2023-08-08T01:39:39;9.48;;;1.80;;
21038;SDS011;10678;51.002;4.786;2023-08-08T01:42:07;8.57;;;1.65;;
21038;SDS011;10678;51.002;4.786;2023-08-08T01:44:33;9.25;;;1.92;;
21038;SDS011;10678;51.002;4.786;2023-08-08T01:47:00;8.98;;;1.80;;
21038;SDS011;10678;51.002;4.786;2023-08-08T01:49:26;15.88;;;3.08;;
21038;SDS011;10678;51.002;4.786;2023-08-08T01:51:51;10.05;;;2.75;;
21038;SDS011;10678;51.002;4.786;2023-08-08T01:54:18;6.63;;;1.88;;
21038;SDS011;10678;51.002;4.786;2023-08-08T01:56:44;5.88;;;1.80;;
21038;SDS011;10678;51.002;4.786;2023-08-08T01:59:09;9.95;;;2.20;;
21038;SDS011;10678;51.002;4.786;2023-08-08T02:01:35;7.95;;;2.10;;
21038;SDS011;10678;51.002;4.786;2023-08-08T02:04:01;9.07;;;2.50;;
21038;SDS011;10678;51.002;4.786;2023-08-08T02:06:27;8.00;;;1.63;;
21038;SDS011;10678;51.002;4.786;2023-08-08T02:08:53;10.38;;;2.17;;
21038;SDS011;10678;51.002;4.786;2023-08-08T02:11:18;10.77;;;1.95;;
21038;SDS011;10678;51.002;4.786;2023-08-08T02:13:44;11.48;;;2.30;;
21038;SDS011;10678;51.002;4.786;2023-08-08T02:16:10;8.43;;;2.45;;
21038;SDS011;10678;51.002;4.786;2023-08-08T02:18:35;12.10;;;2.55;;
21038;SDS011;10678;51.002;4.786;2023-08-08T02:21:05;9.88;;;2.45;;
21038;SDS011;10678;51.002;4.786;2023-08-08T02:23:32;8.80;;;2.22;;
21038;SDS011;10678;51.002;4.786;2023-08-08T02:25:58;8.95;;;3.10;;
21038;SDS011;10678;51.002;4.786;2023-08-08T02:28:23;6.95;;;1.90;;
21038;SDS011;10678;51.002;4.786;2023-08-08T02:30:49;7.00;;;1.70;;
21038;SDS011;10678;51.002;4.786;2023-08-08T02:33:15;8.80;;;2.58;;
21038;SDS011;10678;51.002;4.786;2023-08-08T02:35:40;9.23;;;2.22;;
21038;SDS011;10678;51.002;4.786;2023-08-08T02:38:06;9.85;;;2.58;;
21038;SDS011;10678;51.002;4.786;2023-08-08T02:40:31;11.40;;;2.60;;
21038;SDS011;10678;51.002;4.786;2023-08-08T02:42:58;7.25;;;1.90;;
21038;SDS011;10678;51.002;4.786;2023-08-08T02:45:24;12.23;;;2.58;;
21038;SDS011;10678;51.002;4.786;2023-08-08T02:47:49;11.25;;;2.50;;
21038;SDS011;10678;51.002;4.786;2023-08-08T02:50:15;14.75;;;2.58;;
21038;SDS011;10678;51.002;4.786;2023-08-08T02:52:41;9.82;;;2.10;;
21038;SDS011;10678;51.002;4.786;2023-08-08T02:55:06;11.15;;;2.50;;
21038;SDS011;10678;51.002;4.786;2023-08-08T02:57:32;10.07;;;2.75;;
21038;SDS011;10678;51.002;4.786;2023-08-08T02:59:58;10.27;;;2.45;;
21038;SDS011;10678;51.002;4.786;2023-08-08T03:02:24;11.50;;;3.00;;
21038;SDS011;10678;51.002;4.786;2023-08-08T03:04:49;9.43;;;2.45;;
21038;SDS011;10678;51.002;4.786;2023-08-08T03:07:15;14.73;;;2.30;;
21038;SDS011;10678;51.002;4.786;2023-08-08T03:09:40;16.58;;;2.40;;
21038;SDS011;10678;51.002;4.786;2023-08-08T03:12:06;12.00;;;2.50;;
21038;SDS011;10678;51.002;4.786;2023-08-08T03:14:32;12.77;;;2.67;;
21038;SDS011;10678;51.002;4.786;2023-08-08T03:16:58;11.27;;;2.75;;
21038;SDS011;10678;51.002;4.786;2023-08-08T03:19:24;16.90;;;3.60;;
21038;SDS011;10678;51.002;4.786;2023-08-08T03:21:50;8.68;;;2.40;;
21038;SDS011;10678;51.002;4.786;2023-08-08T03:24:16;13.60;;;2.78;;
21038;SDS011;10678;51.002;4.786;2023-08-08T03:26:42;11.07;;;2.72;;
21038;SDS011;10678;51.002;4.786;2023-08-08T03:29:07;9.52;;;2.47;;
21038;SDS011;10678;51.002;4.786;2023-08-08T03:31:35;15.73;;;2.85;;
21038;SDS011;10678;51.002;4.786;2023-08-08T03:34:01;11.00;;;2.38;;
21038;SDS011;10678;51.002;4.786;2023-08-08T03:36:27;14.68;;;3.05;;
21038;SDS011;10678;51.002;4.786;2023-08-08T03:38:52;14.82;;;3.40;;
21038;SDS011;10678;51.002;4.786;2023-08-08T03:41:18;11.10;;;2.50;;
21038;SDS011;10678;51.002;4.786;2023-08-08T03:43:44;12.57;;;2.92;;
21038;SDS011;10678;51.002;4.786;2023-08-08T03:46:10;17.38;;;2.80;;
21038;SDS011;10678;51.002;4.786;2023-08-08T03:48:36;9.55;;;2.70;;
21038;SDS011;10678;51.002;4.786;2023-08-08T03:51:02;9.55;;;2.58;;
21038;SDS011;10678;51.002;4.786;2023-08-08T03:53:28;15.55;;;2.65;;
21038;SDS011;10678;51.002;4.786;2023-08-08T03:55:54;13.13;;;3.22;;
21038;SDS011;10678;51.002;4.786;2023-08-08T03:58:20;10.05;;;2.30;;
21038;SDS011;10678;51.002;4.786;2023-08-08T04:00:45;9.95;;;2.38;;
21038;SDS011;10678;51.002;4.786;2023-08-08T04:03:14;9.52;;;2.08;;
21038;SDS011;10678;51.002;4.786;2023-08-08T04:05:41;9.15;;;2.13;;
21038;SDS011;10678;51.002;4.786;2023-08-08T04:08:11;9.88;;;2.83;;
21038;SDS011;10678;51.002;4.786;2023-08-08T04:10:36;11.32;;;2.92;;
21038;SDS011;10678;51.002;4.786;2023-08-08T04:13:02;15.98;;;3.33;;
21038;SDS011;10678;51.002;4.786;2023-08-08T04:15:28;9.38;;;2.60;;
21038;SDS011;10678;51.002;4.786;2023-08-08T04:17:54;13.98;;;2.83;;
21038;SDS011;10678;51.002;4.786;2023-08-08T04:20:20;11.10;;;2.60;;
21038;SDS011;10678;51.002;4.786;2023-08-08T04:22:45;17.45;;;2.90;;
21038;SDS011;10678;51.002;4.786;2023-08-08T04:25:11;8.70;;;2.75;;
21038;SDS011;10678;51.002;4.786;2023-08-08T04:27:36;11.57;;;2.97;;
21038;SDS011;10678;51.002;4.786;2023-08-08T04:30:02;14.95;;;3.22;;
21038;SDS011;10678;51.002;4.786;2023-08-08T04:32:29;15.45;;;3.13;;
21038;SDS011;10678;51.002;4.786;2023-08-08T04:34:55;9.25;;;3.08;;
21038;SDS011;10678;51.002;4.786;2023-08-08T04:37:21;7.07;;;2.50;;
21038;SDS011;10678;51.002;4.786;2023-08-08T04:39:46;11.20;;;2.95;;
21038;SDS011;10678;51.002;4.786;2023-08-08T04:42:12;13.57;;;2.60;;
21038;SDS011;10678;51.002;4.786;2023-08-08T04:44:38;10.18;;;2.80;;
21038;SDS011;10678;51.002;4.786;2023-08-08T04:47:04;13.00;;;2.75;;
21038;SDS011;10678;51.002;4.786;2023-08-08T04:49:29;9.73;;;2.97;;
21038;SDS011;10678;51.002;4.786;2023-08-08T04:51:55;12.90;;;3.05;;
21038;SDS011;10678;51.002;4.786;2023-08-08T04:54:21;11.45;;;2.90;;
21038;SDS011;10678;51.002;4.786;2023-08-08T04:56:46;13.63;;;3.13;;
21038;SDS011;10678;51.002;4.786;2023-08-08T04:59:12;17.55;;;3.38;;
21038;SDS011;10678;51.002;4.786;2023-08-08T05:01:37;16.02;;;3.25;;
21038;SDS011;10678;51.002;4.786;2023-08-08T05:04:03;14.05;;;3.40;;
21038;SDS011;10678;51.002;4.786;2023-08-08T05:06:29;12.55;;;3.00;;
21038;SDS011;10678;51.002;4.786;2023-08-08T05:08:55;11.27;;;2.78;;
21038;SDS011;10678;51.002;4.786;2023-08-08T05:11:21;11.40;;;3.20;;
21038;SDS011;10678;51.002;4.786;2023-08-08T05:13:47;11.10;;;3.35;;
21038;SDS011;10678;51.002;4.786;2023-08-08T05:16:13;19.90;;;4.10;;
21038;SDS011;10678;51.002;4.786;2023-08-08T05:18:39;12.52;;;2.88;;
21038;SDS011;10678;51.002;4.786;2023-08-08T05:21:05;18.27;;;3.40;;
21038;SDS011;10678;51.002;4.786;2023-08-08T05:23:31;17.02;;;3.42;;
21038;SDS011;10678;51.002;4.786;2023-08-08T05:25:57;13.52;;;3.05;;
21038;SDS011;10678;51.002;4.786;2023-08-08T05:28:22;14.60;;;3.78;;
21038;SDS011;10678;51.002;4.786;2023-08-08T05:30:48;14.52;;;3.15;;
21038;SDS011;10678;51.002;4.786;2023-08-08T05:33:14;13.10;;;3.55;;
21038;SDS011;10678;51.002;4.786;2023-08-08T05:35:39;13.38;;;3.30;;
21038;SDS011;10678;51.002;4.786;2023-08-08T05:38:05;18.95;;;3.33;;
21038;SDS011;10678;51.002;4.786;2023-08-08T05:40:36;12.52;;;3.33;;
21038;SDS011;10678;51.002;4.786;2023-08-08T05:43:02;18.30;;;3.10;;
21038;SDS011;10678;51.002;4.786;2023-08-08T05:45:28;15.88;;;3.35;;
21038;SDS011;10678;51.002;4.786;2023-08-08T05:47:54;19.77;;;4.25;;
21038;SDS011;10678;51.002;4.786;2023-08-08T05:50:21;19.75;;;3.42;;
21038;SDS011;10678;51.002;4.786;2023-08-08T05:52:47;12.38;;;3.22;;
21038;SDS011;10678;51.002;4.786;2023-08-08T05:55:13;14.82;;;3.25;;
21038;SDS011;10678;51.002;4.786;2023-08-08T05:57:39;12.90;;;3.25;;
21038;SDS011;10678;51.002;4.786;2023-08-08T06:00:05;11.10;;;2.90;;
21038;SDS011;10678;51.002;4.786;2023-08-08T06:02:33;11.93;;;3.13;;
21038;SDS011;10678;51.002;4.786;2023-08-08T06:04:59;16.27;;;3.55;;
21038;SDS011;10678;51.002;4.786;2023-08-08T06:07:24;10.80;;;2.58;;
21038;SDS011;10678;51.002;4.786;2023-08-08T06:09:50;14.93;;;3.13;;
21038;SDS011;10678;51.002;4.786;2023-08-08T06:12:15;12.35;;;2.88;;
21038;SDS011;10678;51.002;4.786;2023-08-08T06:14:41;14.93;;;2.85;;
21038;SDS011;10678;51.002;4.786;2023-08-08T06:17:07;17.80;;;2.92;;
21038;SDS011;10678;51.002;4.786;2023-08-08T06:19:33;12.70;;;3.60;;
21038;SDS011;10678;51.002;4.786;2023-08-08T06:21:58;16.27;;;3.17;;
21038;SDS011;10678;51.002;4.786;2023-08-08T06:24:24;10.85;;;3.13;;
21038;SDS011;10678;51.002;4.786;2023-08-08T06:26:49;15.55;;;3.03;;
21038;SDS011;10678;51.002;4.786;2023-08-08T06:29:15;17.13;;;3.35;;
21038;SDS011;10678;51.002;4.786;2023-08-08T06:31:41;9.18;;;2.75;;
21038;SDS011;10678;51.002;4.786;2023-08-08T06:34:07;14.60;;;3.03;;
21038;SDS011;10678;51.002;4.786;2023-08-08T06:36:32;10.55;;;2.45;;
21038;SDS011;10678;51.002;4.786;2023-08-08T06:38:58;12.82;;;2.72;;
21038;SDS011;10678;51.002;4.786;2023-08-08T06:41:23;17.20;;;3.05;;
21038;SDS011;10678;51.002;4.786;2023-08-08T06:43:49;13.15;;;2.70;;
21038;SDS011;10678;51.002;4.786;2023-08-08T06:46:15;13.32;;;2.83;;
21038;SDS011;10678;51.002;4.786;2023-08-08T06:48:42;12.35;;;3.15;;
21038;SDS011;10678;51.002;4.786;2023-08-08T06:51:09;13.77;;;2.55;;
21038;SDS011;10678;51.002;4.786;2023-08-08T06:53:35;9.60;;;2.67;;
21038;SDS011;10678;51.002;4.786;2023-08-08T06:56:00;14.95;;;2.90;;
21038;SDS011;10678;51.002;4.786;2023-08-08T06:58:26;13.38;;;2.25;;
21038;SDS011;10678;51.002;4.786;2023-08-08T07:00:52;14.07;;;2.35;;
21038;SDS011;10678;51.002;4.786;2023-08-08T07:03:17;11.95;;;2.25;;
21038;SDS011;10678;51.002;4.786;2023-08-08T07:05:43;12.27;;;2.80;;
21038;SDS011;10678;51.002;4.786;2023-08-08T07:08:09;11.90;;;2.60;;
21038;SDS011;10678;51.002;4.786;2023-08-08T07:10:35;9.93;;;2.20;;
21038;SDS011;10678;51.002;4.786;2023-08-08T07:13:01;7.85;;;2.40;;
21038;SDS011;10678;51.002;4.786;2023-08-08T07:15:26;12.32;;;2.63;;
21038;SDS011;10678;51.002;4.786;2023-08-08T07:17:52;7.68;;;2.03;;
21038;SDS011;10678;51.002;4.786;2023-08-08T07:20:19;10.70;;;2.75;;
21038;SDS011;10678;51.002;4.786;2023-08-08T07:22:44;12.10;;;2.33;;
21038;SDS011;10678;51.002;4.786;2023-08-08T07:25:10;14.00;;;2.30;;
21038;SDS011;10678;51.002;4.786;2023-08-08T07:27:36;12.57;;;2.22;;
21038;SDS011;10678;51.002;4.786;2023-08-08T07:30:03;11.85;;;2.72;;
21038;SDS011;10678;51.002;4.786;2023-08-08T07:32:29;12.27;;;2.53;;
21038;SDS011;10678;51.002;4.786;2023-08-08T07:34:55;11.05;;;2.17;;
21038;SDS011;10678;51.002;4.786;2023-08-08T07:37:21;7.38;;;1.85;;
21038;SDS011;10678;51.002;4.786;2023-08-08T07:39:49;10.70;;;1.80;;
21038;SDS011;10678;51.002;4.786;2023-08-08T07:42:16;11.20;;;3.22;;
21038;SDS011;10678;51.002;4.786;2023-08-08T07:44:42;9.68;;;1.88;;
21038;SDS011;10678;51.002;4.786;2023-08-08T07:47:07;10.68;;;2.85;;
21038;SDS011;10678;51.002;4.786;2023-08-08T07:49:33;7.75;;;2.42;;
21038;SDS011;10678;51.002;4.786;2023-08-08T07:51:59;11.43;;;2.08;;
21038;SDS011;10678;51.002;4.786;2023-08-08T07:54:24;8.43;;;2.10;;
21038;SDS011;10678;51.002;4.786;2023-08-08T07:56:50;9.60;;;2.08;;
21038;SDS011;10678;51.002;4.786;2023-08-08T07:59:15;14.68;;;2.10;;
21038;SDS011;10678;51.002;4.786;2023-08-08T08:01:41;9.80;;;1.73;;
21038;SDS011;10678;51.002;4.786;2023-08-08T08:04:07;12.23;;;2.28;;
21038;SDS011;10678;51.002;4.786;2023-08-08T08:06:33;13.70;;;2.22;;
21038;SDS011;10678;51.002;4.786;2023-08-08T08:08:58;14.65;;;2.45;;
21038;SDS011;10678;51.002;4.786;2023-08-08T08:11:24;8.80;;;2.20;;
21038;SDS011;10678;51.002;4.786;2023-08-08T08:13:49;7.97;;;1.95;;
21038;SDS011;10678;51.002;4.786;2023-08-08T08:16:15;8.93;;;2.67;;
21038;SDS011;10678;51.002;4.786;2023-08-08T08:18:41;12.48;;;2.08;;
21038;SDS011;10678;51.002;4.786;2023-08-08T08:21:07;16.25;;;2.60;;
21038;SDS011;10678;51.002;4.786;2023-08-08T08:23:33;9.75;;;2.50;;
21038;SDS011;10678;51.002;4.786;2023-08-08T08:25:58;9.68;;;2.53;;
21038;SDS011;10678;51.002;4.786;2023-08-08T08:28:25;8.90;;;2.05;;
21038;SDS011;10678;51.002;4.786;2023-08-08T08:30:51;11.68;;;1.92;;
21038;SDS011;10678;51.002;4.786;2023-08-08T08:33:17;8.98;;;2.20;;
21038;SDS011;10678;51.002;4.786;2023-08-08T08:35:43;13.40;;;2.85;;
21038;SDS011;10678;51.002;4.786;2023-08-08T08:38:09;11.40;;;2.38;;
21038;SDS011;10678;51.002;4.786;2023-08-08T08:40:39;10.05;;;2.65;;
21038;SDS011;10678;51.002;4.786;2023-08-08T08:43:06;9.90;;;2.42;;
21038;SDS011;10678;51.002;4.786;2023-08-08T08:45:36;8.98;;;1.88;;
21038;SDS011;10678;51.002;4.786;2023-08-08T08:48:07;11.88;;;2.38;;
21038;SDS011;10678;51.002;4.786;2023-08-08T08:50:36;12.55;;;2.35;;
21038;SDS011;10678;51.002;4.786;2023-08-08T08:53:03;12.35;;;2.35;;
21038;SDS011;10678;51.002;4.786;2023-08-08T08:55:30;11.38;;;2.33;;
21038;SDS011;10678;51.002;4.786;2023-08-08T08:57:56;14.40;;;2.88;;
21038;SDS011;10678;51.002;4.786;2023-08-08T09:00:22;8.82;;;2.30;;
21038;SDS011;10678;51.002;4.786;2023-08-08T09:02:49;10.18;;;2.63;;
21038;SDS011;10678;51.002;4.786;2023-08-08T09:05:15;8.20;;;2.58;;
21038;SDS011;10678;51.002;4.786;2023-08-08T09:07:46;10.77;;;2.80;;
21038;SDS011;10678;51.002;4.786;2023-08-08T09:10:12;6.95;;;2.40;;
21038;SDS011;10678;51.002;4.786;2023-08-08T09:12:40;10.05;;;2.50;;
21038;SDS011;10678;51.002;4.786;2023-08-08T09:15:06;5.93;;;2.35;;
21038;SDS011;10678;51.002;4.786;2023-08-08T09:17:32;10.73;;;2.53;;
21038;SDS011;10678;51.002;4.786;2023-08-08T09:19:58;10.70;;;2.58;;
21038;SDS011;10678;51.002;4.786;2023-08-08T09:22:24;15.70;;;2.55;;
21038;SDS011;10678;51.002;4.786;2023-08-08T09:24:50;10.27;;;2.50;;
21038;SDS011;10678;51.002;4.786;2023-08-08T09:27:16;8.20;;;2.42;;
21038;SDS011;10678;51.002;4.786;2023-08-08T09:29:41;10.45;;;2.67;;
21038;SDS011;10678;51.002;4.786;2023-08-08T09:32:07;12.38;;;2.25;;
21038;SDS011;10678;51.002;4.786;2023-08-08T09:34:33;10.05;;;2.55;;
21038;SDS011;10678;51.002;4.786;2023-08-08T09:37:00;8.15;;;2.58;;
21038;SDS011;10678;51.002;4.786;2023-08-08T09:39:26;11.23;;;2.13;;
21038;SDS011;10678;51.002;4.786;2023-08-08T09:41:52;17.92;;;2.42;;
21038;SDS011;10678;51.002;4.786;2023-08-08T09:44:22;7.78;;;2.20;;
21038;SDS011;10678;51.002;4.786;2023-08-08T09:46:49;9.90;;;2.20;;
21038;SDS011;10678;51.002;4.786;2023-08-08T09:49:15;14.15;;;2.65;;
21038;SDS011;10678;51.002;4.786;2023-08-08T09:51:41;7.22;;;2.05;;
21038;SDS011;10678;51.002;4.786;2023-08-08T09:54:08;8.43;;;1.92;;
21038;SDS011;10678;51.002;4.786;2023-08-08T09:56:35;6.35;;;1.77;;
21038;SDS011;10678;51.002;4.786;2023-08-08T09:59:01;6.78;;;1.58;;
21038;SDS011;10678;51.002;4.786;2023-08-08T10:01:30;6.60;;;1.85;;
21038;SDS011;10678;51.002;4.786;2023-08-08T10:03:57;8.75;;;1.65;;
21038;SDS011;10678;51.002;4.786;2023-08-08T10:06:24;9.70;;;2.00;;
21038;SDS011;10678;51.002;4.786;2023-08-08T10:08:51;7.13;;;1.88;;
21038;SDS011;10678;51.002;4.786;2023-08-08T10:11:17;7.68;;;1.95;;
21038;SDS011;10678;51.002;4.786;2023-08-08T10:13:47;9.77;;;2.10;;
21038;SDS011;10678;51.002;4.786;2023-08-08T10:16:14;10.25;;;2.17;;
21038;SDS011;10678;51.002;4.786;2023-08-08T10:18:41;7.55;;;1.90;;
21038;SDS011;10678;51.002;4.786;2023-08-08T10:21:07;6.63;;;1.77;;
21038;SDS011;10678;51.002;4.786;2023-08-08T10:23:37;7.88;;;1.75;;
21038;SDS011;10678;51.002;4.786;2023-08-08T10:26:04;6.65;;;1.90;;
21038;SDS011;10678;51.002;4.786;2023-08-08T10:28:42;8.25;;;1.65;;
21038;SDS011;10678;51.002;4.786;2023-08-08T10:31:19;12.73;;;2.47;;
21038;SDS011;10678;51.002;4.786;2023-08-08T10:33:45;15.90;;;2.53;;
21038;SDS011;10678;51.002;4.786;2023-08-08T10:36:11;11.68;;;1.85;;
21038;SDS011;10678;51.002;4.786;2023-08-08T10:38:42;10.98;;;1.92;;
21038;SDS011;10678;51.002;4.786;2023-08-08T10:41:14;11.40;;;2.50;;
21038;SDS011;10678;51.002;4.786;2023-08-08T10:43:50;9.77;;;2.60;;
21038;SDS011;10678;51.002;4.786;2023-08-08T10:48:57;9.75;;;2.10;;
21038;SDS011;10678;51.002;4.786;2023-08-08T10:51:36;10.43;;;2.45;;
21038;SDS011;10678;51.002;4.786;2023-08-08T10:54:03;9.07;;;2.97;;
21038;SDS011;10678;51.002;4.786;2023-08-08T10:56:35;9.50;;;2.45;;
21038;SDS011;10678;51.002;4.786;2023-08-08T10:59:11;7.38;;;2.03;;
21038;SDS011;10678;51.002;4.786;2023-08-08T11:01:41;8.85;;;2.17;;
21038;SDS011;10678;51.002;4.786;2023-08-08T11:04:10;9.68;;;2.60;;
21038;SDS011;10678;51.002;4.786;2023-08-08T11:06:36;11.13;;;2.70;;
21038;SDS011;10678;51.002;4.786;2023-08-08T11:09:05;9.70;;;2.03;;
21038;SDS011;10678;51.002;4.786;2023-08-08T11:11:41;10.07;;;2.33;;
21038;SDS011;10678;51.002;4.786;2023-08-08T11:16:37;7.05;;;2.00;;
21038;SDS011;10678;51.002;4.786;2023-08-08T11:19:03;8.80;;;2.80;;
21038;SDS011;10678;51.002;4.786;2023-08-08T11:21:32;8.95;;;2.00;;
21038;SDS011;10678;51.002;4.786;2023-08-08T11:24:00;6.20;;;2.25;;
21038;SDS011;10678;51.002;4.786;2023-08-08T11:26:26;8.45;;;1.73;;
21038;SDS011;10678;51.002;4.786;2023-08-08T11:28:52;4.93;;;1.60;;
21038;SDS011;10678;51.002;4.786;2023-08-08T11:31:21;9.93;;;1.60;;
21038;SDS011;10678;51.002;4.786;2023-08-08T11:33:48;7.07;;;1.70;;
21038;SDS011;10678;51.002;4.786;2023-08-08T11:36:14;6.82;;;1.77;;
21038;SDS011;10678;51.002;4.786;2023-08-08T11:38:41;7.53;;;1.73;;
21038;SDS011;10678;51.002;4.786;2023-08-08T11:41:09;8.85;;;1.60;;
21038;SDS011;10678;51.002;4.786;2023-08-08T11:43:36;5.00;;;1.95;;
21038;SDS011;10678;51.002;4.786;2023-08-08T11:46:03;5.10;;;1.77;;
21038;SDS011;10678;51.002;4.786;2023-08-08T11:48:32;11.48;;;1.95;;
21038;SDS011;10678;51.002;4.786;2023-08-08T11:50:58;6.13;;;1.80;;
21038;SDS011;10678;51.002;4.786;2023-08-08T11:53:23;5.60;;;1.60;;
21038;SDS011;10678;51.002;4.786;2023-08-08T11:55:49;4.88;;;1.30;;
21038;SDS011;10678;51.002;4.786;2023-08-08T11:58:15;6.15;;;1.70;;
21038;SDS011;10678;51.002;4.786;2023-08-08T12:00:42;4.40;;;1.60;;
21038;SDS011;10678;51.002;4.786;2023-08-08T12:03:10;3.78;;;1.33;;
21038;SDS011;10678;51.002;4.786;2023-08-08T12:05:39;4.13;;;1.38;;
21038;SDS011;10678;51.002;4.786;2023-08-08T12:08:05;5.95;;;1.63;;
21038;SDS011;10678;51.002;4.786;2023-08-08T12:10:31;4.97;;;1.67;;
21038;SDS011;10678;51.002;4.786;2023-08-08T12:12:57;4.57;;;1.25;;
21038;SDS011;10678;51.002;4.786;2023-08-08T12:15:35;5.13;;;1.40;;
21038;SDS011;10678;51.002;4.786;2023-08-08T12:18:01;4.93;;;1.40;;
21038;SDS011;10678;51.002;4.786;2023-08-08T12:20:28;11.55;;;2.30;;
21038;SDS011;10678;51.002;4.786;2023-08-08T12:22:57;8.50;;;1.63;;
21038;SDS011;10678;51.002;4.786;2023-08-08T12:25:24;8.82;;;1.52;;
21038;SDS011;10678;51.002;4.786;2023-08-08T12:27:49;6.15;;;2.00;;
21038;SDS011;10678;51.002;4.786;2023-08-08T12:30:15;4.00;;;0.95;;
21038;SDS011;10678;51.002;4.786;2023-08-08T12:32:41;5.07;;;1.50;;
21038;SDS011;10678;51.002;4.786;2023-08-08T12:35:06;5.13;;;1.10;;
21038;SDS011;10678;51.002;4.786;2023-08-08T12:37:33;4.22;;;1.30;;
21038;SDS011;10678;51.002;4.786;2023-08-08T12:39:58;8.23;;;1.52;;
21038;SDS011;10678;51.002;4.786;2023-08-08T12:42:24;3.00;;;1.20;;
21038;SDS011;10678;51.002;4.786;2023-08-08T12:44:50;8.95;;;1.30;;
21038;SDS011;10678;51.002;4.786;2023-08-08T12:47:17;6.90;;;1.40;;
21038;SDS011;10678;51.002;4.786;2023-08-08T12:49:44;4.85;;;1.40;;
21038;SDS011;10678;51.002;4.786;2023-08-08T12:52:10;4.55;;;1.10;;
21038;SDS011;10678;51.002;4.786;2023-08-08T12:54:35;4.07;;;1.25;;
21038;SDS011;10678;51.002;4.786;2023-08-08T12:57:01;6.60;;;1.65;;
21038;SDS011;10678;51.002;4.786;2023-08-08T12:59:27;4.38;;;1.25;;
21038;SDS011;10678;51.002;4.786;2023-08-08T13:01:53;4.65;;;1.13;;
21038;SDS011;10678;51.002;4.786;2023-08-08T13:04:19;5.10;;;1.20;;
21038;SDS011;10678;51.002;4.786;2023-08-08T13:06:44;4.72;;;1.00;;
21038;SDS011;10678;51.002;4.786;2023-08-08T13:09:10;5.70;;;1.33;;
21038;SDS011;10678;51.002;4.786;2023-08-08T13:11:37;3.58;;;1.02;;
21038;SDS011;10678;51.002;4.786;2023-08-08T13:14:02;4.28;;;1.27;;
21038;SDS011;10678;51.002;4.786;2023-08-08T13:16:28;4.68;;;1.25;;
21038;SDS011;10678;51.002;4.786;2023-08-08T13:18:53;5.80;;;1.30;;
21038;SDS011;10678;51.002;4.786;2023-08-08T13:21:19;5.70;;;1.30;;
21038;SDS011;10678;51.002;4.786;2023-08-08T13:23:45;8.65;;;1.88;;
21038;SDS011;10678;51.002;4.786;2023-08-08T13:26:11;2.58;;;0.77;;
21038;SDS011;10678;51.002;4.786;2023-08-08T13:28:36;2.63;;;0.80;;
21038;SDS011;10678;51.002;4.786;2023-08-08T13:31:04;4.85;;;1.20;;
21038;SDS011;10678;51.002;4.786;2023-08-08T13:33:31;9.88;;;1.42;;
21038;SDS011;10678;51.002;4.786;2023-08-08T13:35:57;3.45;;;1.02;;
21038;SDS011;10678;51.002;4.786;2023-08-08T13:38:23;2.55;;;0.90;;
21038;SDS011;10678;51.002;4.786;2023-08-08T13:40:49;4.10;;;0.80;;
21038;SDS011;10678;51.002;4.786;2023-08-08T13:43:15;4.55;;;0.93;;
21038;SDS011;10678;51.002;4.786;2023-08-08T13:45:41;3.17;;;0.90;;
21038;SDS011;10678;51.002;4.786;2023-08-08T13:48:06;4.05;;;0.88;;
21038;SDS011;10678;51.002;4.786;2023-08-08T13:50:32;4.70;;;1.10;;
21038;SDS011;10678;51.002;4.786;2023-08-08T13:52:57;5.93;;;0.88;;
21038;SDS011;10678;51.002;4.786;2023-08-08T13:55:23;3.13;;;0.80;;
21038;SDS011;10678;51.002;4.786;2023-08-08T13:57:50;4.43;;;0.90;;
21038;SDS011;10678;51.002;4.786;2023-08-08T14:00:16;3.17;;;0.75;;
21038;SDS011;10678;51.002;4.786;2023-08-08T14:02:42;3.70;;;1.10;;
21038;SDS011;10678;51.002;4.786;2023-08-08T14:05:08;3.28;;;1.00;;
21038;SDS011;10678;51.002;4.786;2023-08-08T14:07:34;3.63;;;1.08;;
21038;SDS011;10678;51.002;4.786;2023-08-08T14:10:00;4.50;;;1.02;;
21038;SDS011;10678;51.002;4.786;2023-08-08T14:12:27;3.28;;;1.00;;
21038;SDS011;10678;51.002;4.786;2023-08-08T14:14:52;3.00;;;0.82;;
21038;SDS011;10678;51.002;4.786;2023-08-08T14:17:18;3.72;;;1.00;;
21038;SDS011;10678;51.002;4.786;2023-08-08T14:19:43;4.85;;;0.93;;
21038;SDS011;10678;51.002;4.786;2023-08-08T14:22:09;6.05;;;0.98;;
21038;SDS011;10678;51.002;4.786;2023-08-08T14:24:35;3.63;;;1.10;;
21038;SDS011;10678;51.002;4.786;2023-08-08T14:27:01;4.88;;;0.95;;
21038;SDS011;10678;51.002;4.786;2023-08-08T14:29:27;5.00;;;1.08;;
21038;SDS011;10678;51.002;4.786;2023-08-08T14:31:53;7.65;;;1.00;;
21038;SDS011;10678;51.002;4.786;2023-08-08T14:34:18;5.03;;;0.90;;
21038;SDS011;10678;51.002;4.786;2023-08-08T14:36:44;5.93;;;1.00;;
21038;SDS011;10678;51.002;4.786;2023-08-08T14:39:10;4.03;;;1.20;;
21038;SDS011;10678;51.002;4.786;2023-08-08T14:41:36;7.90;;;1.27;;
21038;SDS011;10678;51.002;4.786;2023-08-08T14:44:02;5.43;;;0.90;;
21038;SDS011;10678;51.002;4.786;2023-08-08T14:46:27;5.57;;;1.05;;
21038;SDS011;10678;51.002;4.786;2023-08-08T14:48:54;3.70;;;1.05;;